createdAt,value
2019-06-01T00:01:40.383Z,15.14
2019-06-01T00:04:08.984Z,15.07
2019-06-01T00:06:37.105Z,15.08
2019-06-01T00:09:06.455Z,15.02
2019-06-01T00:11:34.580Z,15.00
2019-06-01T00:14:04.466Z,15.01
2019-06-01T00:16:32.811Z,14.90
2019-06-01T00:19:01.938Z,14.80
2019-06-01T00:21:29.863Z,14.66
2019-06-01T00:23:57.920Z,14.53
2019-06-01T00:26:25.613Z,14.42
2019-06-01T00:28:53.454Z,14.32
2019-06-01T00:31:21.488Z,14.22
2019-06-01T00:33:49.883Z,14.22
2019-06-01T00:36:17.636Z,14.17
2019-06-01T00:38:45.753Z,14.03
2019-06-01T00:41:13.601Z,13.96
2019-06-01T00:43:42.096Z,13.97
2019-06-01T00:46:10.039Z,14.07
2019-06-01T00:48:37.995Z,14.07
2019-06-01T00:51:05.924Z,14.30
2019-06-01T00:53:34.813Z,14.24
2019-06-01T00:56:02.719Z,14.30
2019-06-01T00:58:30.762Z,14.49
2019-06-01T01:00:58.767Z,14.60
2019-06-01T01:03:26.951Z,14.70
2019-06-01T01:05:54.953Z,14.76
2019-06-01T01:08:22.643Z,14.82
2019-06-01T01:10:51.075Z,14.94
2019-06-01T01:13:21.410Z,15.05
2019-06-01T01:15:49.702Z,15.21
2019-06-01T01:18:17.696Z,15.23
2019-06-01T01:20:45.970Z,15.19
2019-06-01T01:23:14.334Z,15.20
2019-06-01T01:25:42.368Z,15.18
2019-06-01T01:28:10.485Z,15.22
2019-06-01T01:30:38.453Z,15.35
2019-06-01T01:33:06.789Z,15.51
2019-06-01T01:35:34.814Z,15.49
2019-06-01T01:38:02.810Z,15.42
2019-06-01T01:40:31.107Z,15.35
2019-06-01T01:42:59.386Z,15.26
2019-06-01T01:45:27.546Z,15.15
2019-06-01T01:47:55.555Z,15.21
2019-06-01T01:50:25.084Z,15.15
2019-06-01T01:52:53.254Z,15.13
2019-06-01T01:55:21.746Z,15.26
2019-06-01T01:57:50.933Z,15.15
2019-06-01T02:00:35.329Z,15.14
2019-06-01T02:03:03.501Z,15.15
2019-06-01T02:05:31.387Z,15.27
2019-06-01T02:08:00.108Z,15.41
2019-06-01T02:10:28.508Z,15.48
2019-06-01T02:12:57.549Z,15.56
2019-06-01T02:15:25.430Z,15.60
2019-06-01T02:17:53.966Z,15.63
2019-06-01T02:20:21.733Z,15.66
2019-06-01T02:22:49.972Z,15.65
2019-06-01T02:25:17.762Z,15.68
2019-06-01T02:27:45.971Z,15.73
2019-06-01T02:30:15.136Z,15.75
2019-06-01T02:32:43.396Z,15.70
2019-06-01T02:35:11.691Z,15.64
2019-06-01T02:37:39.776Z,15.56
2019-06-01T02:40:09.476Z,15.55
2019-06-01T02:42:37.505Z,15.51
2019-06-01T02:45:09.430Z,15.58
2019-06-01T02:47:37.353Z,15.53
2019-06-01T02:50:06.523Z,15.48
2019-06-01T02:52:34.813Z,15.49
2019-06-01T02:55:04.580Z,15.49
2019-06-01T02:57:32.738Z,15.44
2019-06-01T03:00:00.637Z,15.48
2019-06-01T03:02:28.702Z,15.46
2019-06-01T03:04:57.095Z,15.46
2019-06-01T03:07:26.546Z,15.47
2019-06-01T03:09:54.878Z,15.41
2019-06-01T03:12:23.423Z,15.32
2019-06-01T03:14:51.938Z,15.23
2019-06-01T03:17:22.886Z,15.13
2019-06-01T03:19:52.069Z,15.11
2019-06-01T03:22:21.507Z,15.03
2019-06-01T03:24:51.210Z,14.99
2019-06-01T03:27:21.388Z,14.96
2019-06-01T03:29:54.540Z,15.01
2019-06-01T03:32:35.391Z,14.98
2019-06-01T03:34:52.310Z,14.98
2019-06-01T03:37:20.429Z,14.98
2019-06-01T03:39:48.971Z,14.83
2019-06-01T03:42:17.202Z,14.93
2019-06-01T03:44:45.282Z,14.90
2019-06-01T03:47:13.277Z,14.93
2019-06-01T03:49:43.059Z,14.95
2019-06-01T03:52:11.125Z,14.99
2019-06-01T03:54:39.234Z,15.01
2019-06-01T03:57:07.323Z,15.05
2019-06-01T03:59:36.924Z,15.10
2019-06-01T04:02:05.130Z,15.14
2019-06-01T04:04:33.324Z,15.23
2019-06-01T04:07:01.353Z,15.29
2019-06-01T04:09:29.586Z,15.38
2019-06-01T04:11:57.800Z,15.44
2019-06-01T04:14:25.651Z,15.51
2019-06-01T04:16:53.187Z,15.56
2019-06-01T04:19:20.905Z,15.64
2019-06-01T04:21:48.461Z,15.69
2019-06-01T04:24:16.094Z,15.79
2019-06-01T04:26:43.688Z,15.83
2019-06-01T04:29:12.566Z,15.89
2019-06-01T04:31:40.513Z,15.99
2019-06-01T04:34:08.843Z,16.06
2019-06-01T04:36:37.960Z,16.16
2019-06-01T04:39:07.346Z,16.23
2019-06-01T04:41:35.653Z,16.26
2019-06-01T04:44:03.826Z,16.37
2019-06-01T04:46:32.103Z,16.50
2019-06-01T04:49:00.330Z,16.61
2019-06-01T04:51:28.310Z,16.69
2019-06-01T04:53:56.495Z,16.71
2019-06-01T04:56:24.507Z,16.75
2019-06-01T04:58:52.495Z,16.85
2019-06-01T05:01:20.578Z,16.88
2019-06-01T05:03:48.619Z,16.95
2019-06-01T05:06:16.774Z,17.00
2019-06-01T05:08:44.663Z,17.11
2019-06-01T05:11:13.577Z,17.22
2019-06-01T05:13:41.570Z,17.38
2019-06-01T05:16:10.034Z,17.54
2019-06-01T05:18:38.392Z,17.73
2019-06-01T05:21:06.433Z,17.99
2019-06-01T05:23:34.276Z,18.14
2019-06-01T05:26:02.002Z,18.24
2019-06-01T05:28:29.543Z,18.38
2019-06-01T05:30:57.227Z,18.53
2019-06-01T05:33:36.916Z,18.71
2019-06-01T05:35:54.397Z,18.82
2019-06-01T05:38:21.927Z,18.91
2019-06-01T05:40:49.593Z,18.93
2019-06-01T05:43:19.220Z,19.05
2019-06-01T05:45:46.719Z,19.21
2019-06-01T05:48:20.827Z,19.37
2019-06-01T05:50:43.927Z,19.47
2019-06-01T05:53:12.478Z,19.55
2019-06-01T05:55:40.316Z,19.72
2019-06-01T05:58:08.017Z,19.86
2019-06-01T06:00:38.266Z,19.98
2019-06-01T06:03:05.902Z,20.16
2019-06-01T06:05:33.586Z,20.32
2019-06-01T06:08:01.144Z,20.33
2019-06-01T06:10:28.836Z,20.49
2019-06-01T06:12:56.576Z,20.63
2019-06-01T06:15:25.355Z,20.85
2019-06-01T06:17:53.071Z,21.06
2019-06-01T06:20:20.757Z,21.13
2019-06-01T06:22:48.489Z,21.34
2019-06-01T06:25:16.164Z,21.35
2019-06-01T06:27:44.098Z,20.99
2019-06-01T06:30:12.822Z,20.95
2019-06-01T06:32:40.498Z,21.13
2019-06-01T06:35:08.258Z,21.37
2019-06-01T06:37:35.987Z,21.54
2019-06-01T06:40:04.371Z,21.63
2019-06-01T06:42:32.440Z,21.96
2019-06-01T06:45:03.527Z,21.95
2019-06-01T06:47:30.680Z,22.16
2019-06-01T06:49:58.411Z,22.56
2019-06-01T06:52:26.028Z,23.02
2019-06-01T06:54:53.711Z,23.26
2019-06-01T06:57:22.129Z,23.28
2019-06-01T06:59:50.075Z,23.44
2019-06-01T07:02:18.770Z,23.48
2019-06-01T07:04:47.003Z,23.61
2019-06-01T07:07:14.992Z,23.72
2019-06-01T07:09:42.672Z,23.93
2019-06-01T07:12:10.706Z,23.90
2019-06-01T07:14:38.773Z,24.17
2019-06-01T07:17:06.834Z,24.04
2019-06-01T07:19:35.868Z,24.22
2019-06-01T07:22:04.073Z,24.38
2019-06-01T07:24:32.297Z,24.63
2019-06-01T07:27:00.217Z,24.69
2019-06-01T07:29:28.439Z,24.73
2019-06-01T07:31:56.436Z,24.84
2019-06-01T07:34:34.532Z,24.52
2019-06-01T07:36:55.758Z,24.56
2019-06-01T07:39:24.865Z,24.70
2019-06-01T07:41:52.949Z,24.95
2019-06-01T07:44:21.189Z,25.20
2019-06-01T07:46:49.156Z,25.38
2019-06-01T07:49:17.035Z,25.58
2019-06-01T07:51:45.094Z,25.89
2019-06-01T07:54:13.102Z,26.08
2019-06-01T07:56:41.243Z,26.04
2019-06-01T07:59:09.259Z,26.24
2019-06-01T08:01:37.673Z,26.00
2019-06-01T08:04:05.414Z,25.87
2019-06-01T08:06:33.247Z,25.65
2019-06-01T08:09:01.106Z,25.61
2019-06-01T08:11:32.747Z,25.65
2019-06-01T08:14:00.035Z,25.46
2019-06-01T08:16:27.995Z,25.23
2019-06-01T08:18:55.652Z,24.92
2019-06-01T08:21:26.046Z,25.07
2019-06-01T08:23:53.706Z,24.89
2019-06-01T08:26:22.200Z,24.67
2019-06-01T08:28:50.033Z,24.66
2019-06-01T08:31:17.803Z,24.58
2019-06-01T08:33:45.411Z,24.59
2019-06-01T08:36:13.124Z,24.61
2019-06-01T08:38:40.848Z,24.65
2019-06-01T08:41:08.575Z,24.75
2019-06-01T08:43:36.226Z,24.61
2019-06-01T08:46:04.104Z,24.67
2019-06-01T08:48:32.003Z,24.83
2019-06-01T08:51:00.170Z,24.95
2019-06-01T08:53:28.227Z,25.25
2019-06-01T08:55:55.938Z,25.37
2019-06-01T08:58:24.165Z,25.62
2019-06-01T09:00:52.207Z,25.70
2019-06-01T09:03:20.302Z,25.42
2019-06-01T09:05:48.283Z,24.98
2019-06-01T09:08:15.990Z,24.72
2019-06-01T09:10:43.568Z,24.64
2019-06-01T09:13:11.256Z,24.70
2019-06-01T09:15:38.877Z,24.87
2019-06-01T09:18:06.496Z,25.38
2019-06-01T09:20:37.508Z,25.91
2019-06-01T09:23:03.783Z,26.57
2019-06-01T09:25:31.761Z,26.85
2019-06-01T09:27:59.409Z,27.55
2019-06-01T09:30:27.978Z,27.67
2019-06-01T09:32:55.844Z,27.95
2019-06-01T09:35:40.717Z,28.43
2019-06-01T09:37:53.970Z,28.84
2019-06-01T09:40:22.112Z,28.94
2019-06-01T09:42:50.220Z,28.60
2019-06-01T09:45:18.469Z,28.59
2019-06-01T09:47:46.582Z,28.28
2019-06-01T09:50:14.490Z,28.02
2019-06-01T09:52:42.128Z,28.01
2019-06-01T09:55:10.137Z,28.07
2019-06-01T09:57:38.367Z,27.90
2019-06-01T10:00:07.319Z,28.27
2019-06-01T10:02:36.185Z,28.47
2019-06-01T10:05:05.478Z,28.53
2019-06-01T10:07:33.061Z,29.06
2019-06-01T10:10:01.217Z,29.23
2019-06-01T10:12:29.853Z,29.14
2019-06-01T10:14:58.012Z,29.30
2019-06-01T10:17:25.634Z,29.15
2019-06-01T10:19:53.369Z,29.31
2019-06-01T10:22:21.363Z,29.61
2019-06-01T10:24:49.347Z,29.75
2019-06-01T10:27:17.255Z,29.53
2019-06-01T10:29:45.381Z,29.68
2019-06-01T10:32:13.713Z,30.03
2019-06-01T10:34:42.105Z,30.27
2019-06-01T10:37:09.764Z,30.56
2019-06-01T10:39:37.420Z,30.76
2019-06-01T10:42:05.007Z,30.62
2019-06-01T10:44:37.907Z,30.03
2019-06-01T10:47:02.290Z,29.39
2019-06-01T10:49:29.955Z,29.44
2019-06-01T10:51:57.708Z,29.12
2019-06-01T10:54:25.687Z,29.05
2019-06-01T10:56:53.837Z,28.93
2019-06-01T10:59:21.925Z,28.45
2019-06-01T11:01:49.997Z,27.96
2019-06-01T11:04:18.284Z,27.43
2019-06-01T11:06:48.765Z,27.95
2019-06-01T11:09:16.592Z,28.43
2019-06-01T11:11:44.231Z,28.30
2019-06-01T11:14:11.902Z,28.42
2019-06-01T11:16:41.714Z,29.29
2019-06-01T11:19:09.781Z,29.75
2019-06-01T11:21:37.520Z,29.48
2019-06-01T11:24:05.182Z,29.49
2019-06-01T11:26:33.351Z,29.85
2019-06-01T11:29:01.384Z,30.52
2019-06-01T11:31:29.470Z,31.11
2019-06-01T11:33:57.446Z,31.23
2019-06-01T11:36:25.682Z,31.47
2019-06-01T11:38:53.730Z,31.77
2019-06-01T11:41:21.821Z,31.64
2019-06-01T11:43:49.970Z,31.13
2019-06-01T11:46:18.300Z,31.18
2019-06-01T11:48:47.324Z,30.99
2019-06-01T11:51:15.356Z,30.59
2019-06-01T11:53:43.569Z,30.28
2019-06-01T11:56:11.664Z,30.19
2019-06-01T11:58:39.857Z,29.82
2019-06-01T12:01:07.959Z,29.50
2019-06-01T12:03:36.021Z,29.66
2019-06-01T12:06:04.413Z,29.58
2019-06-01T12:08:34.175Z,29.23
2019-06-01T12:11:02.486Z,28.42
2019-06-01T12:13:30.455Z,28.30
2019-06-01T12:15:58.740Z,28.14
2019-06-01T12:18:27.256Z,28.75
2019-06-01T12:20:54.902Z,29.22
2019-06-01T12:23:22.498Z,29.52
2019-06-01T12:25:50.213Z,28.91
2019-06-01T12:28:17.807Z,29.19
2019-06-01T12:30:45.817Z,29.41
2019-06-01T12:33:13.803Z,29.94
2019-06-01T12:35:42.013Z,30.09
2019-06-01T12:38:09.999Z,29.87
2019-06-01T12:40:37.656Z,29.94
2019-06-01T12:43:05.420Z,30.21
2019-06-01T12:45:33.005Z,29.91
2019-06-01T12:48:00.824Z,29.93
2019-06-01T12:50:28.442Z,30.06
2019-06-01T12:52:56.171Z,30.77
2019-06-01T12:55:23.778Z,31.00
2019-06-01T12:57:51.726Z,30.97
2019-06-01T13:00:20.641Z,31.37
2019-06-01T13:02:59.269Z,31.36
2019-06-01T13:05:19.104Z,31.62
2019-06-01T13:07:57.540Z,31.19
2019-06-01T13:10:17.103Z,31.06
2019-06-01T13:12:45.236Z,30.77
2019-06-01T13:15:15.574Z,30.40
2019-06-01T13:17:45.155Z,30.19
2019-06-01T13:20:14.020Z,29.94
2019-06-01T13:22:41.909Z,29.50
2019-06-01T13:25:09.964Z,29.21
2019-06-01T13:27:40.806Z,28.80
2019-06-01T13:30:10.388Z,28.47
2019-06-01T13:32:38.349Z,28.07
2019-06-01T13:35:06.727Z,27.82
2019-06-01T13:37:34.477Z,27.76
2019-06-01T13:40:02.130Z,27.61
2019-06-01T13:42:29.951Z,27.91
2019-06-01T13:44:57.512Z,28.47
2019-06-01T13:47:25.183Z,28.75
2019-06-01T13:49:54.184Z,28.76
2019-06-01T13:52:22.288Z,28.70
2019-06-01T13:54:50.623Z,28.35
2019-06-01T13:57:18.755Z,27.95
2019-06-01T13:59:46.989Z,27.89
2019-06-01T14:02:14.634Z,27.79
2019-06-01T14:04:42.155Z,28.09
2019-06-01T14:07:09.798Z,27.89
2019-06-01T14:09:37.396Z,27.98
2019-06-01T14:12:05.100Z,28.12
2019-06-01T14:14:32.684Z,28.34
2019-06-01T14:17:00.324Z,28.21
2019-06-01T14:19:27.927Z,28.08
2019-06-01T14:21:55.967Z,27.68
2019-06-01T14:24:23.641Z,27.46
2019-06-01T14:26:52.329Z,27.29
2019-06-01T14:29:20.258Z,27.34
2019-06-01T14:31:48.500Z,27.14
2019-06-01T14:34:17.352Z,27.07
2019-06-01T14:36:46.310Z,27.40
2019-06-01T14:39:14.344Z,27.57
2019-06-01T14:41:42.289Z,27.81
2019-06-01T14:44:10.241Z,27.91
2019-06-01T14:46:52.954Z,27.82
2019-06-01T14:49:08.298Z,27.93
2019-06-01T14:51:36.247Z,28.05
2019-06-01T14:54:04.543Z,28.08
2019-06-01T14:56:32.445Z,27.82
2019-06-01T14:59:02.195Z,27.76
2019-06-01T15:01:32.866Z,27.72
2019-06-01T15:04:01.203Z,27.69
2019-06-01T15:06:29.108Z,27.77
2019-06-01T15:09:15.797Z,27.74
2019-06-01T15:11:27.174Z,27.89
2019-06-01T15:13:54.940Z,27.79
2019-06-01T15:16:22.656Z,27.73
2019-06-01T15:18:51.505Z,27.58
2019-06-01T15:21:19.341Z,27.57
2019-06-01T15:23:49.814Z,27.57
2019-06-01T15:26:17.579Z,27.46
2019-06-01T15:28:45.340Z,27.25
2019-06-01T15:31:13.036Z,27.06
2019-06-01T15:33:40.736Z,26.97
2019-06-01T15:36:08.348Z,27.02
2019-06-01T15:38:36.129Z,26.77
2019-06-01T15:41:03.892Z,26.71
2019-06-01T15:43:31.498Z,26.67
2019-06-01T15:45:59.850Z,26.61
2019-06-01T15:48:27.587Z,26.59
2019-06-01T15:51:00.609Z,26.54
2019-06-01T15:53:25.683Z,26.36
2019-06-01T15:55:54.314Z,26.38
2019-06-01T15:58:22.089Z,26.32
2019-06-01T16:00:49.746Z,26.33
2019-06-01T16:03:18.371Z,26.22
2019-06-01T16:05:46.198Z,26.16
2019-06-01T16:08:14.015Z,26.12
2019-06-01T16:10:41.916Z,26.01
2019-06-01T16:13:09.537Z,26.06
2019-06-01T16:15:37.476Z,26.11
2019-06-01T16:18:05.532Z,26.22
2019-06-01T16:20:33.493Z,26.30
2019-06-01T16:23:02.507Z,26.43
2019-06-01T16:25:30.335Z,26.57
2019-06-01T16:27:58.703Z,26.64
2019-06-01T16:30:26.474Z,26.47
2019-06-01T16:32:54.436Z,26.43
2019-06-01T16:35:22.277Z,26.41
2019-06-01T16:37:49.853Z,26.30
2019-06-01T16:40:17.537Z,26.30
2019-06-01T16:42:45.736Z,26.08
2019-06-01T16:45:14.391Z,25.95
2019-06-01T16:47:42.604Z,25.94
2019-06-01T16:50:11.937Z,25.86
2019-06-01T16:52:39.645Z,25.73
2019-06-01T16:55:08.559Z,25.51
2019-06-01T16:57:36.879Z,25.17
2019-06-01T17:00:07.037Z,24.74
2019-06-01T17:02:35.498Z,24.35
2019-06-01T17:05:03.345Z,24.21
2019-06-01T17:07:30.957Z,24.05
2019-06-01T17:10:03.447Z,23.93
2019-06-01T17:12:28.109Z,23.79
2019-06-01T17:14:56.790Z,23.78
2019-06-01T17:17:24.637Z,23.72
2019-06-01T17:19:52.321Z,23.71
2019-06-01T17:22:20.053Z,23.78
2019-06-01T17:24:47.598Z,23.84
2019-06-01T17:27:15.344Z,23.83
2019-06-01T17:29:42.912Z,23.86
2019-06-01T17:32:23.100Z,23.87
2019-06-01T17:34:40.175Z,23.87
2019-06-01T17:37:08.952Z,23.82
2019-06-01T17:39:36.752Z,23.75
2019-06-01T17:42:04.518Z,23.69
2019-06-01T17:44:32.162Z,23.64
2019-06-01T17:46:59.999Z,23.59
2019-06-01T17:49:27.662Z,23.47
2019-06-01T17:51:55.393Z,23.28
2019-06-01T17:54:22.980Z,23.38
2019-06-01T17:56:50.684Z,23.32
2019-06-01T17:59:18.275Z,23.25
2019-06-01T18:01:46.662Z,23.07
2019-06-01T18:04:14.273Z,22.88
2019-06-01T18:06:41.885Z,22.75
2019-06-01T18:09:10.284Z,22.68
2019-06-01T18:11:38.080Z,22.59
2019-06-01T18:14:08.231Z,22.50
2019-06-01T18:16:36.161Z,22.41
2019-06-01T18:19:04.171Z,22.17
2019-06-01T18:21:33.496Z,22.17
2019-06-01T18:24:04.557Z,22.10
2019-06-01T18:26:32.566Z,21.98
2019-06-01T18:29:00.540Z,21.82
2019-06-01T18:31:28.753Z,21.82
2019-06-01T18:33:56.753Z,21.77
2019-06-01T18:36:24.789Z,21.74
2019-06-01T18:38:53.130Z,21.68
2019-06-01T18:41:21.005Z,21.65
2019-06-01T18:43:49.087Z,21.62
2019-06-01T18:46:17.392Z,21.58
2019-06-01T18:48:45.463Z,21.54
2019-06-01T18:51:14.467Z,21.46
2019-06-01T18:53:42.792Z,21.34
2019-06-01T18:56:10.752Z,21.32
2019-06-01T18:58:38.381Z,21.20
2019-06-01T19:01:06.475Z,21.10
2019-06-01T19:03:34.511Z,20.98
2019-06-01T19:06:02.414Z,20.79
2019-06-01T19:08:30.078Z,20.83
2019-06-01T19:10:58.110Z,20.81
2019-06-01T19:13:26.007Z,20.82
2019-06-01T19:15:53.909Z,20.76
2019-06-01T19:18:21.699Z,20.72
2019-06-01T19:20:49.255Z,20.72
2019-06-01T19:23:21.724Z,20.71
2019-06-01T19:25:46.358Z,20.74
2019-06-01T19:28:15.275Z,20.70
2019-06-01T19:30:44.054Z,20.66
2019-06-01T19:33:14.282Z,20.61
2019-06-01T19:35:41.235Z,20.56
2019-06-01T19:38:09.148Z,20.51
2019-06-01T19:40:38.124Z,20.50
2019-06-01T19:43:07.342Z,20.45
2019-06-01T19:45:36.372Z,20.38
2019-06-01T19:48:06.057Z,20.31
2019-06-01T19:50:33.801Z,20.28
2019-06-01T19:53:02.804Z,20.15
2019-06-01T19:55:30.554Z,20.13
2019-06-01T19:57:59.925Z,20.05
2019-06-01T20:00:28.919Z,20.02
2019-06-01T20:02:56.551Z,19.97
2019-06-01T20:05:24.303Z,19.94
2019-06-01T20:07:51.904Z,19.90
2019-06-01T20:10:19.452Z,19.87
2019-06-01T20:12:47.228Z,19.86
2019-06-01T20:15:15.550Z,19.78
2019-06-01T20:17:43.333Z,19.74
2019-06-01T20:20:11.228Z,19.55
2019-06-01T20:22:38.863Z,19.63
2019-06-01T20:25:06.865Z,19.54
2019-06-01T20:27:34.567Z,19.50
2019-06-01T20:30:02.311Z,19.45
2019-06-01T20:32:30.364Z,19.41
2019-06-01T20:34:57.959Z,19.37
2019-06-01T20:37:25.617Z,19.34
2019-06-01T20:39:53.211Z,19.32
2019-06-01T20:42:31.362Z,19.31
2019-06-01T20:44:50.689Z,19.30
2019-06-01T20:47:18.922Z,19.26
2019-06-01T20:49:47.604Z,19.25
2019-06-01T20:52:16.786Z,19.22
2019-06-01T20:54:44.752Z,19.19
2019-06-01T20:57:13.312Z,19.17
2019-06-01T20:59:40.973Z,19.10
2019-06-01T21:02:08.560Z,19.07
2019-06-01T21:04:36.349Z,19.07
2019-06-01T21:07:04.089Z,18.99
2019-06-01T21:09:31.755Z,18.94
2019-06-01T21:11:59.525Z,18.92
2019-06-01T21:14:27.141Z,18.88
2019-06-01T21:16:54.743Z,18.86
2019-06-01T21:19:22.524Z,18.83
2019-06-01T21:21:50.458Z,18.79
2019-06-01T21:24:18.794Z,18.75
2019-06-01T21:26:46.834Z,18.77
2019-06-01T21:29:14.684Z,18.78
2019-06-01T21:31:42.449Z,18.77
2019-06-01T21:34:10.584Z,18.81
2019-06-01T21:36:41.563Z,18.92
2019-06-01T21:39:08.003Z,18.93
2019-06-01T21:41:35.862Z,18.97
2019-06-01T21:44:03.694Z,18.97
2019-06-01T21:46:31.369Z,18.94
2019-06-01T21:48:58.997Z,18.89
2019-06-01T21:51:26.685Z,18.82
2019-06-01T21:53:54.314Z,18.76
2019-06-01T21:56:23.714Z,18.76
2019-06-01T21:58:51.510Z,18.73
2019-06-01T22:01:19.146Z,18.70
2019-06-01T22:03:46.717Z,18.67
2019-06-01T22:06:14.343Z,18.65
2019-06-01T22:08:51.073Z,18.66
2019-06-01T22:11:11.454Z,18.67
2019-06-01T22:13:39.004Z,18.64
2019-06-01T22:16:06.978Z,18.64
2019-06-01T22:18:34.987Z,18.63
2019-06-01T22:21:02.704Z,18.60
2019-06-01T22:23:30.455Z,18.61
2019-06-01T22:25:58.160Z,18.57
2019-06-01T22:28:26.361Z,18.54
2019-06-01T22:30:54.122Z,18.51
2019-06-01T22:33:23.010Z,18.42
2019-06-01T22:35:50.824Z,18.45
2019-06-01T22:38:19.606Z,18.25
2019-06-01T22:40:47.445Z,18.37
2019-06-01T22:43:15.184Z,18.35
2019-06-01T22:45:42.879Z,18.31
2019-06-01T22:48:10.669Z,18.23
2019-06-01T22:50:38.529Z,18.18
2019-06-01T22:53:06.154Z,18.05
2019-06-01T22:55:33.955Z,18.12
2019-06-01T22:58:01.636Z,18.04
2019-06-01T23:00:29.866Z,17.98
2019-06-01T23:02:57.701Z,17.91
2019-06-01T23:05:25.277Z,17.86
2019-06-01T23:07:52.968Z,17.85
2019-06-01T23:10:27.434Z,17.85
2019-06-01T23:12:50.063Z,17.83
2019-06-01T23:15:17.628Z,17.83
2019-06-01T23:17:45.287Z,17.86
2019-06-01T23:20:12.914Z,17.67
2019-06-01T23:22:40.570Z,17.83
2019-06-01T23:25:08.234Z,17.81
2019-06-01T23:27:35.896Z,17.86
2019-06-01T23:30:04.142Z,17.90
2019-06-01T23:32:32.705Z,17.90
2019-06-01T23:35:00.479Z,17.90
2019-06-01T23:37:28.831Z,17.91
2019-06-01T23:39:56.700Z,17.94
2019-06-01T23:42:24.606Z,17.96
2019-06-01T23:44:52.351Z,17.96
2019-06-01T23:47:19.909Z,17.93
2019-06-01T23:49:47.610Z,17.87
2019-06-01T23:52:15.231Z,17.86
2019-06-01T23:54:43.733Z,17.81
2019-06-01T23:57:11.346Z,17.78
2019-06-01T23:59:38.978Z,17.77
